createdAt,value
2016-11-30T00:00:52.853Z,0
2016-11-30T00:02:02.915Z,0
2016-11-30T00:03:13.272Z,0
2016-11-30T00:04:23.290Z,0
2016-11-30T00:05:33.607Z,0
2016-11-30T00:06:43.622Z,0
2016-11-30T00:07:53.951Z,0
2016-11-30T00:09:03.652Z,0
2016-11-30T00:10:13.672Z,0
2016-11-30T00:11:23.993Z,0
2016-11-30T00:12:34.321Z,0
2016-11-30T00:13:44.642Z,0
2016-11-30T00:14:54.981Z,0
2016-11-30T00:16:05.305Z,0
2016-11-30T00:17:15.632Z,0
2016-11-30T00:18:25.645Z,0
2016-11-30T00:19:35.666Z,0
2016-11-30T00:20:45.703Z,0
2016-11-30T00:21:55.429Z,0
2016-11-30T00:23:05.446Z,0
2016-11-30T00:24:15.773Z,0
2016-11-30T00:25:26.106Z,0
2016-11-30T00:26:36.431Z,0
2016-11-30T00:27:46.460Z,0
2016-11-30T00:28:56.785Z,0
2016-11-30T00:30:07.097Z,0
2016-11-30T00:31:17.128Z,0
2016-11-30T00:32:27.440Z,0
2016-11-30T00:33:37.757Z,0
2016-11-30T00:34:48.079Z,0
2016-11-30T00:35:58.405Z,0
2016-11-30T00:37:08.720Z,0
2016-11-30T00:38:18.417Z,0
2016-11-30T00:39:28.768Z,0
2016-11-30T00:40:38.791Z,0
2016-11-30T00:41:49.144Z,0
2016-11-30T00:42:59.469Z,0
2016-11-30T00:44:09.797Z,0
2016-11-30T00:45:19.505Z,0
2016-11-30T00:46:29.506Z,0
2016-11-30T00:47:39.532Z,0
2016-11-30T00:48:49.541Z,0
2016-11-30T00:49:59.857Z,0
2016-11-30T00:51:10.185Z,0
2016-11-30T00:52:19.889Z,0
2016-11-30T00:53:29.891Z,0
2016-11-30T00:54:40.217Z,0
2016-11-30T00:55:50.539Z,0
2016-11-30T00:57:00.855Z,0
2016-11-30T00:58:10.858Z,0
2016-11-30T00:59:20.568Z,0
2016-11-30T01:00:30.587Z,0
2016-11-30T01:01:40.596Z,0
2016-11-30T01:02:50.639Z,0
2016-11-30T01:04:00.360Z,0
2016-11-30T01:05:10.368Z,0
2016-11-30T01:06:20.684Z,0
2016-11-30T01:07:31.010Z,0
2016-11-30T01:08:41.012Z,0
2016-11-30T01:09:51.037Z,0
2016-11-30T01:11:01.043Z,0
2016-11-30T01:12:10.761Z,0
2016-11-30T01:13:20.937Z,0
2016-11-30T01:14:31.671Z,0
2016-11-30T01:15:41.953Z,0
2016-11-30T01:16:52.523Z,0
2016-11-30T01:18:03.067Z,0
2016-11-30T01:19:13.607Z,0
2016-11-30T01:20:23.809Z,0
2016-11-30T01:21:34.340Z,0
2016-11-30T01:22:44.643Z,0
2016-11-30T01:23:55.175Z,0
2016-11-30T01:25:05.695Z,0
2016-11-30T01:26:15.958Z,0
2016-11-30T01:27:26.581Z,0
2016-11-30T01:28:37.231Z,0
2016-11-30T01:29:47.371Z,0
2016-11-30T01:30:57.693Z,0
2016-11-30T01:32:07.710Z,0
2016-11-30T01:33:17.712Z,0
2016-11-30T01:34:27.709Z,0
2016-11-30T01:35:37.764Z,0
2016-11-30T01:36:47.783Z,0
2016-11-30T01:37:58.108Z,0
2016-11-30T01:39:08.113Z,0
2016-11-30T01:40:18.137Z,0
2016-11-30T01:41:28.698Z,0
2016-11-30T01:42:39.024Z,0
2016-11-30T01:43:49.356Z,0
2016-11-30T01:44:59.683Z,0
2016-11-30T01:46:09.694Z,0
2016-11-30T01:47:19.707Z,0
2016-11-30T01:48:29.723Z,0
2016-11-30T01:49:39.747Z,0
2016-11-30T01:50:49.751Z,0
2016-11-30T01:51:59.455Z,0
2016-11-30T01:53:09.147Z,0
2016-11-30T01:54:19.477Z,0
2016-11-30T01:55:29.503Z,0
2016-11-30T01:56:39.206Z,0
2016-11-30T01:57:49.228Z,0
2016-11-30T01:58:59.561Z,0
2016-11-30T02:00:08.955Z,0
2016-11-30T02:01:19.282Z,0
2016-11-30T02:02:29.285Z,0
2016-11-30T02:03:39.610Z,0
2016-11-30T02:04:49.932Z,0
2016-11-30T02:05:59.631Z,0
2016-11-30T02:07:09.645Z,0
2016-11-30T02:08:19.051Z,0
2016-11-30T02:09:29.373Z,0
2016-11-30T02:10:39.382Z,0
2016-11-30T02:11:49.687Z,0
2016-11-30T02:13:00.010Z,0
2016-11-30T02:14:10.015Z,0
2016-11-30T02:15:20.022Z,0
2016-11-30T02:16:30.343Z,0
2016-11-30T02:17:40.676Z,0
2016-11-30T02:18:50.691Z,0
2016-11-30T02:20:00.715Z,0
2016-11-30T02:21:10.727Z,0
2016-11-30T02:22:21.053Z,0
2016-11-30T02:23:31.074Z,0
2016-11-30T02:24:41.391Z,0
2016-11-30T02:25:51.707Z,0
2016-11-30T02:27:01.413Z,0
2016-11-30T02:28:11.744Z,0
2016-11-30T02:29:22.053Z,0
2016-11-30T02:30:32.048Z,0
2016-11-30T02:31:42.046Z,0
2016-11-30T02:32:52.357Z,0
2016-11-30T02:34:02.704Z,0
2016-11-30T02:35:12.706Z,0
2016-11-30T02:36:23.042Z,0
2016-11-30T02:37:33.120Z,0
2016-11-30T02:38:43.149Z,0
2016-11-30T02:39:53.478Z,0
2016-11-30T02:41:03.806Z,0
2016-11-30T02:42:13.826Z,0
2016-11-30T02:43:23.833Z,0
2016-11-30T02:44:33.840Z,0
2016-11-30T02:45:44.172Z,0
2016-11-30T02:46:54.191Z,0
2016-11-30T02:48:04.520Z,0
2016-11-30T02:49:14.226Z,0
2016-11-30T02:50:24.237Z,0
2016-11-30T02:51:34.591Z,0
2016-11-30T02:52:44.911Z,0
2016-11-30T02:53:54.923Z,0
2016-11-30T02:55:04.935Z,0
2016-11-30T02:56:14.631Z,0
2016-11-30T02:57:24.960Z,0
2016-11-30T02:58:34.976Z,0
2016-11-30T02:59:45.299Z,0
2016-11-30T03:00:55.624Z,0
2016-11-30T03:33:02.795Z,0
2016-11-30T03:34:13.143Z,0
2016-11-30T03:35:22.539Z,0
2016-11-30T03:36:32.535Z,0
2016-11-30T03:37:42.548Z,0
2016-11-30T03:38:52.568Z,0
2016-11-30T03:40:02.901Z,0
2016-11-30T03:41:12.908Z,0
2016-11-30T03:42:23.155Z,0
2016-11-30T03:43:33.167Z,0
2016-11-30T03:44:43.202Z,0
2016-11-30T03:45:53.549Z,0
2016-11-30T03:47:03.576Z,0
2016-11-30T03:48:13.966Z,0
2016-11-30T03:49:24.280Z,0
2016-11-30T03:50:34.618Z,0
2016-11-30T03:51:44.634Z,0
2016-11-30T03:52:54.954Z,0
2016-11-30T03:54:04.983Z,0
2016-11-30T03:55:14.681Z,0
2016-11-30T03:56:24.994Z,0
2016-11-30T03:57:35.323Z,0
2016-11-30T03:58:45.337Z,0
2016-11-30T03:59:54.769Z,0
2016-11-30T04:01:04.780Z,0
2016-11-30T04:02:15.109Z,0
2016-11-30T04:03:25.124Z,0
2016-11-30T04:04:35.143Z,0
2016-11-30T04:05:45.520Z,0
2016-11-30T04:06:55.536Z,0
2016-11-30T04:08:05.551Z,0
2016-11-30T04:09:15.893Z,0
2016-11-30T04:10:26.237Z,0
2016-11-30T04:11:36.248Z,0
2016-11-30T04:12:46.573Z,0
2016-11-30T04:13:56.924Z,0
2016-11-30T04:15:07.251Z,0
2016-11-30T04:16:17.574Z,0
2016-11-30T04:17:27.902Z,0
2016-11-30T04:18:38.231Z,0
2016-11-30T04:19:47.936Z,0
2016-11-30T04:20:57.950Z,0
2016-11-30T04:22:08.286Z,0
2016-11-30T04:23:18.303Z,0
2016-11-30T04:24:28.638Z,0
2016-11-30T04:25:38.987Z,0
2016-11-30T04:26:48.998Z,0
2016-11-30T04:27:59.346Z,0
2016-11-30T04:29:09.683Z,0
2016-11-30T04:30:19.700Z,0
2016-11-30T04:31:29.721Z,0
2016-11-30T04:32:39.427Z,0
2016-11-30T04:33:48.819Z,0
2016-11-30T04:34:59.125Z,0
2016-11-30T04:36:09.454Z,0
2016-11-30T04:37:19.778Z,0
2016-11-30T04:38:29.795Z,0
2016-11-30T04:39:40.113Z,0
2016-11-30T04:40:50.128Z,0
2016-11-30T04:42:00.451Z,0
2016-11-30T04:43:10.779Z,0
2016-11-30T04:44:21.110Z,0
2016-11-30T04:45:31.431Z,0
2016-11-30T04:46:40.820Z,0
2016-11-30T04:47:50.839Z,0
2016-11-30T04:49:00.832Z,0
2016-11-30T04:50:10.844Z,0
2016-11-30T04:51:20.550Z,0
2016-11-30T04:52:30.252Z,0
2016-11-30T04:53:40.559Z,0
2016-11-30T04:54:50.264Z,0
2016-11-30T04:55:59.947Z,0
2016-11-30T04:57:09.644Z,0
2016-11-30T04:58:19.976Z,0
2016-11-30T04:59:29.986Z,0
2016-11-30T05:00:40.003Z,0
2016-11-30T05:01:50.010Z,0
2016-11-30T05:03:00.338Z,0
2016-11-30T05:04:10.668Z,0
2016-11-30T05:05:20.692Z,0
2016-11-30T05:06:30.741Z,0
2016-11-30T05:07:41.068Z,0
2016-11-30T05:08:50.766Z,0
2016-11-30T05:10:00.786Z,0
2016-11-30T05:11:10.172Z,0
2016-11-30T05:12:20.505Z,0
2016-11-30T05:13:30.511Z,0
2016-11-30T05:14:40.207Z,0
2016-11-30T05:15:50.559Z,0
2016-11-30T05:16:59.957Z,0
2016-11-30T05:18:09.975Z,0
2016-11-30T05:19:20.305Z,0
2016-11-30T05:20:30.636Z,0
2016-11-30T05:21:40.963Z,0
2016-11-30T05:22:51.290Z,0
2016-11-30T05:24:01.619Z,0
2016-11-30T05:25:11.634Z,0
2016-11-30T05:26:21.954Z,0
2016-11-30T05:27:31.956Z,0
2016-11-30T05:28:41.997Z,0
2016-11-30T05:29:52.009Z,0
2016-11-30T05:31:02.028Z,0
2016-11-30T05:32:12.372Z,0
2016-11-30T05:33:22.375Z,0
2016-11-30T05:34:32.391Z,0
2016-11-30T05:35:42.099Z,0
2016-11-30T05:36:52.125Z,0
2016-11-30T05:38:02.459Z,0
2016-11-30T05:39:12.168Z,0
2016-11-30T05:40:22.180Z,0
2016-11-30T05:41:32.508Z,0
2016-11-30T05:42:43.069Z,0
2016-11-30T05:43:52.764Z,0
2016-11-30T05:45:03.096Z,4
2016-11-30T05:46:13.105Z,4
2016-11-30T05:47:23.105Z,4
2016-11-30T05:48:33.113Z,0
2016-11-30T05:49:43.133Z,0
2016-11-30T05:50:53.135Z,0
2016-11-30T05:52:03.152Z,4
2016-11-30T05:53:13.178Z,4
2016-11-30T05:54:22.877Z,4
2016-11-30T05:55:32.902Z,4
2016-11-30T05:56:43.222Z,4
2016-11-30T05:57:53.226Z,4
2016-11-30T05:59:02.932Z,4
2016-11-30T06:00:13.259Z,8
2016-11-30T06:01:23.591Z,8
2016-11-30T06:02:33.940Z,8
2016-11-30T06:03:44.283Z,12
2016-11-30T06:04:54.640Z,16
2016-11-30T06:06:04.967Z,20
2016-11-30T06:07:15.293Z,20
2016-11-30T06:08:25.299Z,24
2016-11-30T06:09:35.631Z,28
2016-11-30T06:10:45.631Z,32
2016-11-30T06:11:55.955Z,36
2016-11-30T06:13:05.971Z,44
2016-11-30T06:14:15.364Z,52
2016-11-30T06:15:25.690Z,60
2016-11-30T06:16:35.396Z,68
2016-11-30T06:17:45.412Z,80
2016-11-30T06:18:55.431Z,88
2016-11-30T06:20:05.768Z,96
2016-11-30T06:21:16.038Z,108
2016-11-30T06:22:26.364Z,120
2016-11-30T06:23:36.676Z,132
2016-11-30T06:24:46.988Z,148
2016-11-30T06:25:57.315Z,160
2016-11-30T06:27:06.702Z,176
2016-11-30T06:28:17.033Z,192
2016-11-30T06:29:26.421Z,208
2016-11-30T06:30:36.751Z,220
2016-11-30T06:31:47.069Z,240
2016-11-30T06:32:56.756Z,256
2016-11-30T06:34:06.776Z,276
2016-11-30T06:35:16.781Z,300
2016-11-30T06:36:26.477Z,328
2016-11-30T06:37:36.494Z,356
2016-11-30T06:38:46.858Z,388
2016-11-30T06:39:57.175Z,412
2016-11-30T06:41:07.493Z,436
2016-11-30T06:42:17.814Z,464
2016-11-30T06:43:27.822Z,500
2016-11-30T06:44:37.827Z,540
2016-11-30T06:45:47.854Z,580
2016-11-30T06:46:57.872Z,632
2016-11-30T06:48:07.892Z,688
2016-11-30T06:49:18.219Z,752
2016-11-30T06:50:28.541Z,832
2016-11-30T06:51:37.926Z,896
2016-11-30T06:52:48.249Z,936
2016-11-30T06:53:58.576Z,980
2016-11-30T06:55:08.589Z,1012
2016-11-30T06:56:18.906Z,1040
2016-11-30T06:57:28.914Z,1068
2016-11-30T06:58:39.228Z,1156
2016-11-30T06:59:49.555Z,1328
2016-11-30T07:00:59.870Z,1484
2016-11-30T07:02:10.116Z,1532
2016-11-30T07:03:20.437Z,1548
2016-11-30T07:04:30.145Z,1592
2016-11-30T07:05:40.172Z,1648
2016-11-30T07:06:50.499Z,1748
2016-11-30T07:08:00.511Z,1844
2016-11-30T07:09:10.217Z,1944
2016-11-30T07:10:20.233Z,2012
2016-11-30T07:11:30.244Z,2144
2016-11-30T07:12:39.946Z,2196
2016-11-30T07:13:49.964Z,2124
2016-11-30T07:15:00.004Z,2084
2016-11-30T07:16:10.330Z,2104
2016-11-30T07:17:20.389Z,2412
2016-11-30T07:18:30.715Z,2560
2016-11-30T07:19:40.752Z,2580
2016-11-30T07:20:50.458Z,2624
2016-11-30T07:22:00.770Z,2720
2016-11-30T07:23:10.781Z,2868
2016-11-30T07:24:20.477Z,2880
2016-11-30T07:25:30.487Z,2752
2016-11-30T07:26:40.815Z,2764
2016-11-30T07:27:50.834Z,2872
2016-11-30T07:29:01.170Z,2896
2016-11-30T07:30:10.876Z,3092
2016-11-30T07:31:21.222Z,3236
2016-11-30T07:32:31.534Z,3188
2016-11-30T07:33:41.856Z,3172
2016-11-30T07:34:52.184Z,3340
2016-11-30T07:36:02.194Z,3388
2016-11-30T07:37:11.898Z,3332
2016-11-30T07:38:22.223Z,3264
2016-11-30T07:39:31.916Z,3100
2016-11-30T07:40:42.256Z,3016
2016-11-30T07:41:52.587Z,2548
2016-11-30T07:43:02.305Z,2544
2016-11-30T07:44:12.297Z,3088
2016-11-30T07:45:22.615Z,3052
2016-11-30T07:46:32.640Z,3064
2016-11-30T07:47:42.026Z,2972
2016-11-30T07:48:51.736Z,2980
2016-11-30T07:50:01.437Z,2876
2016-11-30T07:51:11.467Z,2840
2016-11-30T07:52:21.470Z,2528
2016-11-30T07:53:31.801Z,2580
2016-11-30T07:54:41.818Z,2456
2016-11-30T07:55:52.154Z,2324
2016-11-30T07:57:02.165Z,1908
2016-11-30T07:58:12.491Z,1844
2016-11-30T07:59:22.519Z,1816
2016-11-30T08:00:32.219Z,1880
2016-11-30T08:01:42.224Z,1940
2016-11-30T08:02:52.550Z,2056
2016-11-30T08:04:02.893Z,2604
2016-11-30T08:05:13.220Z,2828
2016-11-30T08:06:22.920Z,3268
2016-11-30T08:07:32.941Z,3124
2016-11-30T08:08:42.952Z,3868
2016-11-30T08:09:53.275Z,4464
2016-11-30T08:11:03.583Z,4784
2016-11-30T08:12:13.913Z,4860
2016-11-30T08:13:23.941Z,4916
2016-11-30T08:14:33.957Z,4920
2016-11-30T08:15:43.974Z,5004
2016-11-30T08:16:54.000Z,5048
2016-11-30T08:18:04.337Z,5132
2016-11-30T08:19:14.660Z,5232
2016-11-30T08:20:24.370Z,5280
2016-11-30T08:21:34.381Z,5340
2016-11-30T08:22:44.703Z,5376
2016-11-30T08:23:54.716Z,5412
2016-11-30T08:25:04.732Z,5436
2016-11-30T08:26:14.744Z,5384
2016-11-30T08:27:25.075Z,5468
2016-11-30T08:28:35.082Z,5424
2016-11-30T08:29:45.454Z,5324
2016-11-30T08:30:55.466Z,4888
2016-11-30T08:32:05.163Z,4312
2016-11-30T08:33:15.475Z,3692
2016-11-30T08:34:24.866Z,4200
2016-11-30T08:35:35.208Z,4688
2016-11-30T08:36:44.931Z,4988
2016-11-30T08:37:54.656Z,5148
2016-11-30T08:39:05.012Z,5336
2016-11-30T08:40:14.722Z,5028
2016-11-30T08:41:25.054Z,5108
2016-11-30T08:42:35.370Z,5672
2016-11-30T08:43:45.714Z,5624
2016-11-30T08:44:55.726Z,5840
2016-11-30T08:46:05.433Z,6108
2016-11-30T08:47:14.821Z,6436
2016-11-30T08:48:25.152Z,6592
2016-11-30T08:49:35.491Z,6540
2016-11-30T08:50:45.821Z,6832
2016-11-30T08:51:56.149Z,6752
2016-11-30T08:53:06.174Z,6908
2016-11-30T08:54:16.206Z,6976
2016-11-30T08:55:26.239Z,6720
2016-11-30T08:56:35.952Z,6844
2016-11-30T08:57:45.966Z,6892
2016-11-30T08:58:55.982Z,6780
2016-11-30T09:00:05.734Z,6496
2016-11-30T09:01:16.068Z,6360
2016-11-30T09:02:26.388Z,5420
2016-11-30T09:03:36.416Z,4440
2016-11-30T09:04:46.467Z,4636
2016-11-30T09:05:56.804Z,4432
2016-11-30T09:07:06.563Z,4028
2016-11-30T09:08:16.936Z,4348
2016-11-30T09:09:27.269Z,4444
2016-11-30T09:10:37.282Z,3892
2016-11-30T09:11:46.977Z,3860
2016-11-30T09:12:57.004Z,3788
2016-11-30T09:14:07.344Z,3720
2016-11-30T09:15:17.679Z,3908
2016-11-30T09:16:28.009Z,3868
2016-11-30T09:17:38.030Z,3720
2016-11-30T09:18:47.726Z,3876
2016-11-30T09:19:57.751Z,4276
2016-11-30T09:21:07.781Z,4536
2016-11-30T09:22:18.107Z,3996
2016-11-30T09:23:28.128Z,4780
2016-11-30T09:24:37.526Z,5732
2016-11-30T09:25:47.532Z,4876
2016-11-30T09:26:57.884Z,5576
2016-11-30T09:28:07.612Z,5728
2016-11-30T09:29:17.620Z,5308
2016-11-30T09:30:27.644Z,5176
2016-11-30T09:31:37.987Z,4748
2016-11-30T09:32:47.694Z,5476
2016-11-30T09:33:57.089Z,5660
2016-11-30T09:35:06.796Z,5804
2016-11-30T09:36:17.124Z,6004
2016-11-30T09:37:26.825Z,4884
2016-11-30T09:38:36.842Z,4812
2016-11-30T09:39:46.553Z,5020
2016-11-30T09:40:56.560Z,4908
2016-11-30T09:42:06.906Z,5528
2016-11-30T09:43:16.640Z,5652
2016-11-30T09:44:26.595Z,6172
2016-11-30T09:45:36.950Z,5756
2016-11-30T09:46:46.649Z,6760
2016-11-30T09:47:56.980Z,6996
2016-11-30T09:49:06.983Z,7352
2016-11-30T09:50:17.315Z,7176
2016-11-30T09:51:27.005Z,8036
2016-11-30T09:52:37.016Z,7508
2016-11-30T09:53:47.345Z,6976
2016-11-30T09:54:57.681Z,7332
2016-11-30T09:56:07.702Z,7292
2016-11-30T09:57:17.722Z,6808
2016-11-30T09:58:27.745Z,6568
2016-11-30T09:59:37.807Z,5368
2016-11-30T10:00:48.166Z,5344
2016-11-30T10:01:58.500Z,5176
2016-11-30T10:03:08.512Z,5244
2016-11-30T10:04:18.224Z,5268
2016-11-30T10:05:28.251Z,5156
2016-11-30T10:06:37.962Z,5048
2016-11-30T10:07:48.314Z,5388
2016-11-30T10:08:58.317Z,5620
2016-11-30T10:10:08.327Z,5728
2016-11-30T10:11:18.674Z,5600
2016-11-30T10:12:28.986Z,5556
2016-11-30T10:13:39.309Z,5788
2016-11-30T10:14:49.659Z,6200
2016-11-30T10:16:00.005Z,6228
2016-11-30T10:17:10.330Z,6152
2016-11-30T10:18:20.039Z,6188
2016-11-30T10:19:30.370Z,6212
2016-11-30T10:20:40.089Z,5892
2016-11-30T10:21:50.459Z,5700
2016-11-30T10:23:00.790Z,6104
2016-11-30T10:24:11.123Z,6112
2016-11-30T10:25:21.138Z,5904
2016-11-30T10:26:30.848Z,5784
2016-11-30T10:27:41.168Z,5864
2016-11-30T10:28:50.886Z,5880
2016-11-30T10:30:01.213Z,6072
2016-11-30T10:31:11.542Z,6088
2016-11-30T10:32:21.558Z,6000
2016-11-30T10:33:31.630Z,6148
2016-11-30T10:34:41.658Z,6188
2016-11-30T10:35:51.690Z,6092
2016-11-30T10:37:02.027Z,5956
2016-11-30T10:38:12.038Z,5776
2016-11-30T10:39:22.060Z,5752
2016-11-30T10:40:31.782Z,5744
2016-11-30T10:41:41.793Z,5508
2016-11-30T10:42:52.140Z,5344
2016-11-30T10:44:02.484Z,5252
2016-11-30T10:45:12.540Z,5124
2016-11-30T10:46:22.885Z,5168
2016-11-30T10:47:32.895Z,5372
2016-11-30T10:48:42.911Z,5304
2016-11-30T10:49:52.920Z,5272
2016-11-30T10:51:03.252Z,5240
2016-11-30T10:52:13.288Z,5148
2016-11-30T10:53:23.324Z,5004
2016-11-30T10:54:33.339Z,4940
2016-11-30T10:55:43.694Z,4868
2016-11-30T10:56:54.025Z,4832
2016-11-30T10:58:03.431Z,4840
2016-11-30T10:59:13.460Z,4892
2016-11-30T11:00:23.515Z,4892
2016-11-30T11:01:33.563Z,5004
2016-11-30T11:02:43.958Z,4944
2016-11-30T11:03:53.975Z,4924
2016-11-30T11:05:04.313Z,4980
2016-11-30T11:06:14.374Z,4992
2016-11-30T11:07:24.391Z,5012
2016-11-30T11:08:34.106Z,5008
2016-11-30T11:09:44.157Z,4932
2016-11-30T11:10:54.168Z,4972
2016-11-30T11:12:04.502Z,4920
2016-11-30T11:13:14.829Z,4904
2016-11-30T11:14:24.536Z,4892
2016-11-30T11:15:34.867Z,4796
2016-11-30T11:16:45.214Z,4720
2016-11-30T11:17:55.376Z,4748
2016-11-30T11:19:05.745Z,4628
2016-11-30T11:20:15.744Z,4656
2016-11-30T11:21:25.448Z,4472
2016-11-30T11:22:35.471Z,4248
2016-11-30T11:23:45.505Z,4076
2016-11-30T11:24:55.830Z,3952
2016-11-30T11:26:05.846Z,3856
2016-11-30T11:27:15.870Z,3768
2016-11-30T11:28:25.570Z,3684
2016-11-30T11:29:35.893Z,3572
2016-11-30T11:30:46.222Z,3488
2016-11-30T11:31:56.585Z,3428
2016-11-30T11:33:06.611Z,3364
2016-11-30T11:34:16.941Z,3312
2016-11-30T11:35:27.271Z,3284
2016-11-30T11:36:37.607Z,3276
2016-11-30T11:37:47.307Z,3292
2016-11-30T11:38:57.342Z,3328
2016-11-30T11:40:07.674Z,3368
2016-11-30T11:41:18.003Z,3392
2016-11-30T11:42:28.026Z,3424
2016-11-30T11:43:38.062Z,3476
2016-11-30T11:44:48.079Z,3552
2016-11-30T11:45:58.101Z,3632
2016-11-30T11:47:07.808Z,3704
2016-11-30T11:48:18.155Z,3716
2016-11-30T11:49:28.170Z,3712
2016-11-30T11:50:38.516Z,3644
2016-11-30T11:51:48.864Z,3556
2016-11-30T11:52:58.900Z,3504
2016-11-30T11:54:08.912Z,3424
2016-11-30T11:55:18.929Z,3416
2016-11-30T11:56:28.990Z,3424
2016-11-30T11:57:39.008Z,3280
2016-11-30T11:58:49.344Z,3108
2016-11-30T11:59:59.667Z,2916
2016-11-30T12:01:09.702Z,2736
2016-11-30T12:02:19.746Z,2600
2016-11-30T12:03:29.797Z,2484
2016-11-30T12:04:40.132Z,2388
2016-11-30T12:05:50.160Z,2312
2016-11-30T12:07:00.196Z,2236
2016-11-30T12:08:10.222Z,2160
2016-11-30T12:09:20.621Z,2080
2016-11-30T12:10:30.645Z,2020
2016-11-30T12:11:40.722Z,1972
2016-11-30T12:12:50.419Z,1928
2016-11-30T12:14:00.449Z,1884
2016-11-30T12:15:10.781Z,1856
2016-11-30T12:16:21.124Z,1856
2016-11-30T12:17:31.456Z,1876
2016-11-30T12:18:41.803Z,1900
2016-11-30T12:19:52.158Z,1924
2016-11-30T12:21:02.503Z,1944
2016-11-30T12:22:12.837Z,1948
2016-11-30T12:23:22.874Z,1944
2016-11-30T12:24:33.280Z,1932
2016-11-30T12:25:43.298Z,1912
2016-11-30T12:26:53.633Z,1888
2016-11-30T12:28:03.653Z,1868
2016-11-30T12:29:13.993Z,1868
2016-11-30T12:30:23.723Z,1880
2016-11-30T12:31:33.422Z,1888
2016-11-30T12:32:43.739Z,1864
2016-11-30T12:33:54.095Z,1812
2016-11-30T12:35:04.439Z,1732
2016-11-30T12:36:14.774Z,1652
2016-11-30T12:37:24.796Z,1584
2016-11-30T12:38:35.142Z,1512
2016-11-30T12:39:45.164Z,1432
2016-11-30T12:40:55.189Z,1364
2016-11-30T12:42:04.594Z,1304
2016-11-30T12:43:14.319Z,1252
2016-11-30T12:44:24.686Z,1212
2016-11-30T12:45:35.095Z,1200
2016-11-30T12:46:45.124Z,1200
2016-11-30T12:47:55.151Z,1212
2016-11-30T12:49:04.880Z,1232
2016-11-30T12:50:15.219Z,1252
2016-11-30T12:51:25.555Z,1280
2016-11-30T12:52:35.878Z,1312
2016-11-30T12:53:46.215Z,1360
2016-11-30T12:54:55.931Z,1392
2016-11-30T12:56:06.268Z,1392
2016-11-30T12:57:15.983Z,1376
2016-11-30T12:58:26.007Z,1368
2016-11-30T12:59:36.348Z,1364
2016-11-30T13:00:46.382Z,1336
2016-11-30T13:01:56.412Z,1288
2016-11-30T13:03:06.741Z,1232
2016-11-30T13:04:17.079Z,1172
2016-11-30T13:05:27.431Z,1128
2016-11-30T13:06:37.117Z,1100
2016-11-30T13:07:46.831Z,1100
2016-11-30T13:08:56.852Z,1112
2016-11-30T13:10:07.192Z,1140
2016-11-30T13:11:17.278Z,1164
2016-11-30T13:12:27.615Z,1172
2016-11-30T13:13:37.938Z,1160
2016-11-30T13:14:48.281Z,1132
2016-11-30T13:15:58.618Z,1100
2016-11-30T13:17:08.973Z,1080
2016-11-30T13:18:18.991Z,1076
2016-11-30T13:19:29.343Z,1072
2016-11-30T13:20:39.669Z,1076
2016-11-30T13:21:49.986Z,1068
2016-11-30T13:23:00.317Z,1052
2016-11-30T13:24:10.341Z,1032
2016-11-30T13:25:20.051Z,1008
2016-11-30T13:26:30.073Z,992
2016-11-30T13:27:40.413Z,964
2016-11-30T13:28:50.446Z,944
2016-11-30T13:30:00.478Z,928
2016-11-30T13:31:10.501Z,916
2016-11-30T13:32:20.856Z,916
2016-11-30T13:33:30.565Z,916
2016-11-30T13:34:40.278Z,920
2016-11-30T13:35:50.305Z,924
2016-11-30T13:37:00.332Z,924
2016-11-30T13:38:10.679Z,920
2016-11-30T13:39:20.705Z,920
2016-11-30T13:40:31.034Z,912
2016-11-30T13:41:41.080Z,912
2016-11-30T13:42:51.435Z,932
2016-11-30T13:44:01.455Z,980
2016-11-30T13:45:11.469Z,1028
2016-11-30T13:46:21.792Z,1052
2016-11-30T13:47:32.113Z,1056
2016-11-30T13:48:42.429Z,1036
2016-11-30T13:49:52.761Z,1012
2016-11-30T13:51:03.342Z,980
2016-11-30T13:52:13.393Z,948
2016-11-30T13:53:23.419Z,916
2016-11-30T13:54:33.437Z,884
2016-11-30T13:55:43.788Z,860
2016-11-30T13:56:54.150Z,836
2016-11-30T13:58:03.846Z,812
2016-11-30T13:59:13.875Z,800
2016-11-30T14:00:23.906Z,780
2016-11-30T14:01:34.247Z,764
2016-11-30T14:02:44.293Z,760
2016-11-30T14:03:53.998Z,764
2016-11-30T14:05:04.034Z,780
2016-11-30T14:06:14.068Z,836
2016-11-30T14:07:24.407Z,900
2016-11-30T14:08:34.748Z,904
2016-11-30T14:09:45.083Z,856
2016-11-30T14:10:54.800Z,812
2016-11-30T14:12:05.122Z,752
2016-11-30T14:13:14.858Z,736
2016-11-30T14:14:24.876Z,704
2016-11-30T14:15:34.273Z,656
2016-11-30T14:16:44.303Z,612
2016-11-30T14:17:54.308Z,576
2016-11-30T14:19:04.322Z,544
2016-11-30T14:20:14.373Z,528
2016-11-30T14:21:24.401Z,516
2016-11-30T14:22:34.732Z,504
2016-11-30T14:23:44.767Z,484
2016-11-30T14:24:54.787Z,460
2016-11-30T14:26:04.509Z,436
2016-11-30T14:27:14.840Z,416
2016-11-30T14:28:25.171Z,404
2016-11-30T14:29:35.497Z,400
2016-11-30T14:30:45.554Z,396
2016-11-30T14:31:55.881Z,380
2016-11-30T14:33:06.202Z,360
2016-11-30T14:34:15.909Z,340
2016-11-30T14:35:25.925Z,320
2016-11-30T14:36:36.262Z,300
2016-11-30T14:37:46.578Z,280
2016-11-30T14:38:56.610Z,260
2016-11-30T14:40:06.673Z,240
2016-11-30T14:41:16.719Z,224
2016-11-30T14:42:26.746Z,212
2016-11-30T14:43:36.777Z,192
2016-11-30T14:44:47.118Z,180
2016-11-30T14:45:57.145Z,164
2016-11-30T14:47:06.565Z,148
2016-11-30T14:48:16.585Z,136
2016-11-30T14:49:26.671Z,124
2016-11-30T14:50:37.008Z,112
2016-11-30T14:51:47.023Z,100
2016-11-30T14:52:57.046Z,88
2016-11-30T14:54:06.756Z,80
2016-11-30T14:55:16.779Z,76
2016-11-30T14:56:27.129Z,64
2016-11-30T14:57:37.452Z,60
2016-11-30T14:58:47.462Z,56
2016-11-30T14:59:57.487Z,52
2016-11-30T15:01:07.513Z,48
2016-11-30T15:02:17.530Z,44
2016-11-30T15:03:27.845Z,40
2016-11-30T15:04:37.552Z,36
2016-11-30T15:05:47.284Z,36
2016-11-30T15:06:57.301Z,36
2016-11-30T15:08:07.009Z,32
2016-11-30T15:09:16.714Z,28
2016-11-30T15:10:27.036Z,24
2016-11-30T15:11:37.358Z,20
2016-11-30T15:12:47.368Z,20
2016-11-30T15:13:57.702Z,16
2016-11-30T15:15:08.025Z,16
2016-11-30T15:16:18.042Z,12
2016-11-30T15:17:28.371Z,8
2016-11-30T15:18:38.707Z,8
2016-11-30T15:19:49.038Z,8
2016-11-30T15:20:59.352Z,8
2016-11-30T15:22:09.057Z,4
2016-11-30T15:23:19.379Z,4
2016-11-30T15:24:29.737Z,4
2016-11-30T15:25:40.063Z,0
2016-11-30T15:26:50.424Z,4
2016-11-30T15:28:00.125Z,4
2016-11-30T15:29:10.456Z,0
2016-11-30T15:30:20.464Z,0
2016-11-30T15:31:30.798Z,0
2016-11-30T15:32:40.818Z,4
2016-11-30T15:33:51.149Z,4
2016-11-30T15:35:01.485Z,4
2016-11-30T15:36:11.816Z,4
2016-11-30T15:37:21.839Z,4
2016-11-30T15:38:31.851Z,0
2016-11-30T15:39:41.893Z,0
2016-11-30T15:40:51.596Z,0
2016-11-30T15:42:01.315Z,0
2016-11-30T15:43:11.032Z,0
2016-11-30T15:44:21.384Z,0
2016-11-30T15:45:31.401Z,0
2016-11-30T15:46:41.729Z,0
2016-11-30T15:47:52.064Z,0
2016-11-30T15:49:02.112Z,0
2016-11-30T15:50:12.467Z,0
2016-11-30T15:51:22.481Z,0
2016-11-30T15:52:32.505Z,0
2016-11-30T15:53:42.832Z,0
2016-11-30T15:54:52.542Z,0
2016-11-30T15:56:02.890Z,0
2016-11-30T15:57:13.206Z,0
2016-11-30T15:58:23.215Z,0
2016-11-30T15:59:33.549Z,0
2016-11-30T16:00:43.571Z,0
2016-11-30T16:01:53.903Z,0
2016-11-30T16:03:04.234Z,0
2016-11-30T16:04:14.307Z,0
2016-11-30T16:05:24.647Z,0
2016-11-30T16:06:34.659Z,0
2016-11-30T16:07:44.672Z,0
2016-11-30T16:08:54.373Z,0
2016-11-30T16:10:04.699Z,0
2016-11-30T16:11:15.027Z,0
2016-11-30T16:12:25.029Z,0
2016-11-30T16:13:35.049Z,0
2016-11-30T16:14:45.374Z,0
2016-11-30T16:15:55.392Z,0
2016-11-30T16:17:05.734Z,0
2016-11-30T16:18:15.751Z,0
2016-11-30T16:19:25.772Z,0
2016-11-30T16:20:36.095Z,0
2016-11-30T16:21:46.097Z,0
2016-11-30T16:22:56.116Z,0
2016-11-30T16:24:06.460Z,0
2016-11-30T16:25:16.815Z,0
2016-11-30T16:26:27.137Z,0
2016-11-30T16:27:36.849Z,0
2016-11-30T16:28:47.171Z,0
2016-11-30T16:29:57.504Z,0
2016-11-30T16:31:07.218Z,0
2016-11-30T16:32:17.541Z,0
2016-11-30T16:33:27.559Z,0
2016-11-30T16:34:37.880Z,0
2016-11-30T16:35:47.616Z,0
2016-11-30T16:36:57.655Z,0
2016-11-30T16:38:07.994Z,0
2016-11-30T16:39:18.007Z,0
2016-11-30T16:40:28.033Z,0
2016-11-30T16:41:38.370Z,0
2016-11-30T16:42:48.707Z,0
2016-11-30T16:43:58.733Z,0
2016-11-30T16:45:08.765Z,0
2016-11-30T16:46:18.778Z,0
2016-11-30T16:47:27.849Z,0
2016-11-30T16:48:37.874Z,0
2016-11-30T16:49:47.641Z,0
2016-11-30T16:50:57.897Z,0
2016-11-30T16:52:07.286Z,0
2016-11-30T16:53:17.307Z,0